createdAt,value
2018-11-10T00:01:52.818Z,23.37
2018-11-10T00:04:21.081Z,19.10
2018-11-10T00:06:49.245Z,19.67
2018-11-10T00:09:17.431Z,19.37
2018-11-10T00:11:45.834Z,17.13
2018-11-10T00:14:14.021Z,20.97
2018-11-10T00:16:42.236Z,19.73
2018-11-10T00:19:10.414Z,17.20
2018-11-10T00:21:38.594Z,19.20
2018-11-10T00:24:06.882Z,15.40
2018-11-10T00:26:35.072Z,17.70
2018-11-10T00:29:03.278Z,15.10
2018-11-10T00:31:31.470Z,23.00
2018-11-10T00:33:59.665Z,15.90
2018-11-10T00:36:27.854Z,15.20
2018-11-10T00:38:56.042Z,18.03
2018-11-10T00:41:24.214Z,16.73
2018-11-10T00:43:52.427Z,15.27
2018-11-10T00:46:20.609Z,17.40
2018-11-10T00:48:48.833Z,16.37
2018-11-10T00:51:17.013Z,16.47
2018-11-10T00:53:45.210Z,20.53
2018-11-10T00:56:13.397Z,16.00
2018-11-10T00:58:41.650Z,20.53
2018-11-10T01:01:09.835Z,17.43
2018-11-10T01:03:38.026Z,17.40
2018-11-10T01:06:06.222Z,18.77
2018-11-10T01:08:34.413Z,19.40
2018-11-10T01:11:02.606Z,18.50
2018-11-10T01:13:30.802Z,17.70
2018-11-10T01:15:58.997Z,18.00
2018-11-10T01:18:27.186Z,17.50
2018-11-10T01:20:55.378Z,16.20
2018-11-10T01:23:23.569Z,14.47
2018-11-10T01:25:51.745Z,15.10
2018-11-10T01:28:19.929Z,15.67
2018-11-10T01:30:48.097Z,14.50
2018-11-10T01:33:16.306Z,15.00
2018-11-10T01:35:44.485Z,14.80
2018-11-10T01:38:12.686Z,13.67
2018-11-10T01:40:40.869Z,16.67
2018-11-10T01:43:09.058Z,14.60
2018-11-10T01:45:37.245Z,15.80
2018-11-10T01:48:05.641Z,16.23
2018-11-10T01:50:33.818Z,16.73
2018-11-10T01:53:02.020Z,12.97
2018-11-10T01:55:30.209Z,19.07
2018-11-10T01:57:58.386Z,12.37
2018-11-10T02:00:26.571Z,15.40
2018-11-10T02:02:54.758Z,12.93
2018-11-10T02:05:22.934Z,13.33
2018-11-10T02:07:51.138Z,14.73
2018-11-10T02:10:19.320Z,12.57
2018-11-10T02:12:47.514Z,13.10
2018-11-10T02:15:16.701Z,17.93
2018-11-10T02:17:44.936Z,13.87
2018-11-10T02:20:14.073Z,14.17
2018-11-10T02:22:42.374Z,15.50
2018-11-10T02:25:11.545Z,13.17
2018-11-10T02:27:40.128Z,14.50
2018-11-10T02:30:09.690Z,13.67
2018-11-10T02:32:37.890Z,15.90
2018-11-10T02:35:06.882Z,15.50
2018-11-10T02:37:35.126Z,11.70
2018-11-10T02:40:03.309Z,15.23
2018-11-10T02:42:31.504Z,12.80
2018-11-10T02:44:59.681Z,18.20
2018-11-10T02:47:27.856Z,17.67
2018-11-10T02:49:56.066Z,12.63
2018-11-10T02:52:24.241Z,13.20
2018-11-10T02:54:52.452Z,15.03
2018-11-10T02:57:20.628Z,14.20
2018-11-10T02:59:48.805Z,12.27
2018-11-10T03:02:16.990Z,11.10
2018-11-10T03:04:45.257Z,12.73
2018-11-10T03:07:13.435Z,11.00
2018-11-10T03:09:41.626Z,16.20
2018-11-10T03:12:09.802Z,11.00
2018-11-10T03:14:38.005Z,16.30
2018-11-10T03:17:06.201Z,11.57
2018-11-10T03:19:34.388Z,11.40
2018-11-10T03:22:02.570Z,10.57
2018-11-10T03:24:30.766Z,12.60
2018-11-10T03:26:58.954Z,11.00
2018-11-10T03:29:27.150Z,11.70
2018-11-10T03:31:55.342Z,13.70
2018-11-10T03:34:23.550Z,12.53
2018-11-10T03:36:51.727Z,11.83
2018-11-10T03:39:19.925Z,13.77
2018-11-10T03:41:48.115Z,12.83
2018-11-10T03:44:16.301Z,14.70
2018-11-10T03:46:44.482Z,12.97
2018-11-10T03:49:12.674Z,14.97
2018-11-10T03:51:40.864Z,14.30
2018-11-10T03:54:09.051Z,12.90
2018-11-10T03:56:37.241Z,17.33
2018-11-10T03:59:05.425Z,13.43
2018-11-10T04:01:33.605Z,12.40
2018-11-10T04:04:01.797Z,18.57
2018-11-10T04:06:29.981Z,13.77
2018-11-10T04:08:58.177Z,15.63
2018-11-10T04:11:26.705Z,15.83
2018-11-10T04:13:54.901Z,15.93
2018-11-10T04:16:23.094Z,14.47
2018-11-10T04:18:51.285Z,17.23
2018-11-10T04:21:19.534Z,16.30
2018-11-10T04:23:47.717Z,15.63
2018-11-10T04:26:15.903Z,14.10
2018-11-10T04:28:44.138Z,14.43
2018-11-10T04:31:12.307Z,14.60
2018-11-10T04:33:40.513Z,17.03
2018-11-10T04:36:08.706Z,18.90
2018-11-10T04:38:36.886Z,20.80
2018-11-10T04:41:05.518Z,16.90
2018-11-10T04:43:33.718Z,19.63
2018-11-10T04:46:01.907Z,17.90
2018-11-10T04:48:30.090Z,19.63
2018-11-10T04:50:58.281Z,20.27
2018-11-10T04:53:26.469Z,21.27
2018-11-10T04:55:54.657Z,20.67
2018-11-10T04:58:22.846Z,21.70
2018-11-10T05:00:51.027Z,18.30
2018-11-10T05:03:19.216Z,22.13
2018-11-10T05:05:47.401Z,18.93
2018-11-10T05:08:15.589Z,19.73
2018-11-10T05:10:43.793Z,24.03
2018-11-10T05:13:11.999Z,26.27
2018-11-10T05:15:40.190Z,21.87
2018-11-10T05:18:08.373Z,22.93
2018-11-10T05:20:36.581Z,32.40
2018-11-10T05:23:04.857Z,27.80
2018-11-10T05:25:33.057Z,24.50
2018-11-10T05:28:01.256Z,27.27
2018-11-10T05:30:29.446Z,32.50
2018-11-10T05:32:57.668Z,35.27
2018-11-10T05:35:25.874Z,29.20
2018-11-10T05:37:54.087Z,26.67
2018-11-10T05:40:22.300Z,25.03
2018-11-10T05:42:50.498Z,29.87
2018-11-10T05:45:18.702Z,29.87
2018-11-10T05:47:46.913Z,24.33
2018-11-10T05:50:15.105Z,33.83
2018-11-10T05:52:43.293Z,31.67
2018-11-10T05:55:11.497Z,33.27
2018-11-10T05:57:40.113Z,31.93
2018-11-10T06:00:10.249Z,32.50
2018-11-10T06:02:38.453Z,31.07
2018-11-10T06:05:06.703Z,27.03
2018-11-10T06:07:34.901Z,34.83
2018-11-10T06:10:03.289Z,31.50
2018-11-10T06:12:31.307Z,30.23
2018-11-10T06:14:59.509Z,31.93
2018-11-10T06:17:27.707Z,31.43
2018-11-10T06:19:55.927Z,30.70
2018-11-10T06:22:24.124Z,27.27
2018-11-10T06:24:52.334Z,25.83
2018-11-10T06:27:20.528Z,27.40
2018-11-10T06:29:48.733Z,25.27
2018-11-10T06:32:16.943Z,28.00
2018-11-10T06:34:45.156Z,25.27
2018-11-10T06:37:13.353Z,25.40
2018-11-10T06:39:41.563Z,27.10
2018-11-10T06:42:09.761Z,24.13
2018-11-10T06:44:37.977Z,24.90
2018-11-10T06:47:06.246Z,22.77
2018-11-10T06:49:34.402Z,26.60
2018-11-10T06:52:02.606Z,25.00
2018-11-10T06:54:30.804Z,30.93
2018-11-10T06:56:59.001Z,26.10
2018-11-10T06:59:27.218Z,27.60
2018-11-10T07:01:55.427Z,29.03
2018-11-10T07:04:23.641Z,27.03
2018-11-10T07:06:51.863Z,27.17
2018-11-10T07:09:20.160Z,24.70
2018-11-10T07:11:48.321Z,25.40
2018-11-10T07:14:16.519Z,24.63
2018-11-10T07:16:44.713Z,26.40
2018-11-10T07:19:13.008Z,27.37
2018-11-10T07:21:41.210Z,27.10
2018-11-10T07:24:09.434Z,27.17
2018-11-10T07:26:37.637Z,25.03
2018-11-10T07:29:05.837Z,27.93
2018-11-10T07:31:34.058Z,25.50
2018-11-10T07:34:02.451Z,26.77
2018-11-10T07:36:30.640Z,21.30
2018-11-10T07:38:58.864Z,21.00
2018-11-10T07:41:27.044Z,25.83
2018-11-10T07:43:55.267Z,26.97
2018-11-10T07:46:23.457Z,21.30
2018-11-10T07:48:51.650Z,19.60
2018-11-10T07:51:19.968Z,22.37
2018-11-10T07:53:48.056Z,25.73
2018-11-10T07:56:16.285Z,19.80
2018-11-10T07:58:44.542Z,22.50
2018-11-10T08:01:12.758Z,23.70
2018-11-10T08:03:40.966Z,27.90
2018-11-10T08:06:09.228Z,30.37
2018-11-10T08:08:37.445Z,26.57
2018-11-10T08:11:05.670Z,32.80
2018-11-10T08:13:33.887Z,26.03
2018-11-10T08:16:02.095Z,28.60
2018-11-10T08:18:30.309Z,26.37
2018-11-10T08:20:58.530Z,23.40
2018-11-10T08:23:26.738Z,26.77
2018-11-10T08:25:54.938Z,24.23
2018-11-10T08:28:23.189Z,25.97
2018-11-10T08:30:51.417Z,28.10
2018-11-10T08:33:19.614Z,28.67
2018-11-10T08:35:47.830Z,28.00
2018-11-10T08:38:16.021Z,29.27
2018-11-10T08:40:44.245Z,33.50
2018-11-10T08:43:12.518Z,31.50
2018-11-10T08:45:40.749Z,32.27
2018-11-10T08:48:08.966Z,31.47
2018-11-10T08:50:37.177Z,30.53
2018-11-10T08:53:05.393Z,35.07
2018-11-10T08:55:33.601Z,31.53
2018-11-10T08:58:01.802Z,32.40
2018-11-10T09:00:30.018Z,32.43
2018-11-10T09:02:58.212Z,34.43
2018-11-10T09:05:26.421Z,31.57
2018-11-10T09:07:54.609Z,34.83
2018-11-10T09:10:22.834Z,35.33
2018-11-10T09:12:51.038Z,35.83
2018-11-10T09:15:19.355Z,43.73
2018-11-10T09:17:47.473Z,34.87
2018-11-10T09:20:17.686Z,39.93
2018-11-10T09:22:45.979Z,38.20
2018-11-10T09:25:16.557Z,40.83
2018-11-10T09:27:44.752Z,36.57
2018-11-10T09:30:14.280Z,30.33
2018-11-10T09:32:42.870Z,34.30
2018-11-10T09:35:12.168Z,31.90
2018-11-10T09:37:40.400Z,33.00
2018-11-10T09:40:10.449Z,32.47
2018-11-10T09:42:38.778Z,34.77
2018-11-10T09:45:08.624Z,33.93
2018-11-10T09:47:37.228Z,36.83
2018-11-10T09:50:08.671Z,32.40
2018-11-10T09:52:36.877Z,30.37
2018-11-10T09:55:05.837Z,32.63
2018-11-10T09:57:34.158Z,32.53
2018-11-10T10:00:02.381Z,37.50
2018-11-10T10:02:30.992Z,32.53
2018-11-10T10:04:58.831Z,35.83
2018-11-10T10:07:27.122Z,40.23
2018-11-10T10:09:55.340Z,32.90
2018-11-10T10:12:23.882Z,36.70
2018-11-10T10:14:52.109Z,35.03
2018-11-10T10:17:20.312Z,36.30
2018-11-10T10:19:48.801Z,30.63
2018-11-10T10:22:17.072Z,30.03
2018-11-10T10:24:45.273Z,32.40
2018-11-10T10:27:13.489Z,35.80
2018-11-10T10:29:41.766Z,30.20
2018-11-10T10:32:09.965Z,32.73
2018-11-10T10:34:38.305Z,30.70
2018-11-10T10:37:06.417Z,31.10
2018-11-10T10:39:34.797Z,27.47
2018-11-10T10:42:03.042Z,32.13
2018-11-10T10:44:31.266Z,28.80
2018-11-10T10:46:59.485Z,32.90
2018-11-10T10:49:27.698Z,45.47
2018-11-10T10:51:55.924Z,44.07
2018-11-10T10:54:26.472Z,38.87
2018-11-10T10:56:55.098Z,32.23
2018-11-10T10:59:23.367Z,24.60
2018-11-10T11:01:57.040Z,26.87
2018-11-10T11:04:30.665Z,26.50
2018-11-10T11:06:58.891Z,27.37
2018-11-10T11:09:27.119Z,28.43
2018-11-10T11:11:55.307Z,27.73
2018-11-10T11:14:23.505Z,28.50
2018-11-10T11:16:51.720Z,29.27
2018-11-10T11:19:19.925Z,28.63
2018-11-10T11:21:48.186Z,26.70
2018-11-10T11:24:16.353Z,23.97
2018-11-10T11:26:45.439Z,26.27
2018-11-10T11:29:13.739Z,25.40
2018-11-10T11:31:41.869Z,22.27
2018-11-10T11:34:10.081Z,22.83
2018-11-10T11:36:38.312Z,19.47
2018-11-10T11:39:09.091Z,18.00
2018-11-10T11:41:37.355Z,16.23
2018-11-10T11:44:05.884Z,16.63
2018-11-10T11:46:34.171Z,16.47
2018-11-10T11:49:02.486Z,16.23
2018-11-10T11:51:30.709Z,20.63
2018-11-10T11:53:58.984Z,18.47
2018-11-10T11:56:28.586Z,19.30
2018-11-10T11:59:02.729Z,24.83
2018-11-10T12:01:32.034Z,18.23
2018-11-10T12:04:01.288Z,17.67
2018-11-10T12:06:29.577Z,15.90
2018-11-10T12:08:57.803Z,15.23
2018-11-10T12:11:26.066Z,19.57
2018-11-10T12:13:55.493Z,14.93
2018-11-10T12:16:27.199Z,15.83
2018-11-10T12:18:52.066Z,14.77
2018-11-10T12:21:20.590Z,14.47
2018-11-10T12:23:48.809Z,13.63
2018-11-10T12:26:16.997Z,11.70
2018-11-10T12:28:45.185Z,11.67
2018-11-10T12:31:13.402Z,12.47
2018-11-10T12:33:41.611Z,11.10
2018-11-10T12:36:09.813Z,13.50
2018-11-10T12:38:38.045Z,11.10
2018-11-10T12:41:06.202Z,10.07
2018-11-10T12:43:34.402Z,11.60
2018-11-10T12:46:02.593Z,10.47
2018-11-10T12:48:30.778Z,10.67
2018-11-10T12:50:58.982Z,10.30
2018-11-10T12:53:27.157Z,8.13
2018-11-10T12:55:55.481Z,8.00
2018-11-10T12:58:23.836Z,9.37
2018-11-10T13:00:52.027Z,7.57
2018-11-10T13:03:20.214Z,11.60
2018-11-10T13:05:48.397Z,6.10
2018-11-10T13:08:16.732Z,7.80
2018-11-10T13:10:44.774Z,5.10
2018-11-10T13:13:13.343Z,6.03
2018-11-10T13:15:41.521Z,9.20
2018-11-10T13:18:09.715Z,5.63
2018-11-10T13:20:37.906Z,8.70
2018-11-10T13:23:06.090Z,12.93
2018-11-10T13:25:34.265Z,8.37
2018-11-10T13:28:02.462Z,6.70
2018-11-10T13:30:30.647Z,8.90
2018-11-10T13:32:58.841Z,8.00
2018-11-10T13:35:27.022Z,4.40
2018-11-10T13:37:55.295Z,4.97
2018-11-10T13:40:23.413Z,2.80
2018-11-10T13:42:51.697Z,3.93
2018-11-10T13:45:19.882Z,5.10
2018-11-10T13:47:48.094Z,3.67
2018-11-10T13:50:16.293Z,3.83
2018-11-10T13:52:44.868Z,3.30
2018-11-10T13:55:13.348Z,3.23
2018-11-10T13:57:41.545Z,2.93
2018-11-10T14:00:12.305Z,3.30
2018-11-10T14:02:40.577Z,6.27
2018-11-10T14:05:08.791Z,7.60
2018-11-10T14:07:36.995Z,5.83
2018-11-10T14:10:06.596Z,5.30
2018-11-10T14:12:34.848Z,4.03
2018-11-10T14:15:02.985Z,5.87
2018-11-10T14:17:31.178Z,4.80
2018-11-10T14:19:59.382Z,5.17
2018-11-10T14:22:27.637Z,3.73
2018-11-10T14:24:55.838Z,8.00
2018-11-10T14:27:24.082Z,4.90
2018-11-10T14:29:52.261Z,3.53
2018-11-10T14:32:20.461Z,7.13
2018-11-10T14:34:48.646Z,17.30
2018-11-10T14:37:17.039Z,16.33
2018-11-10T14:39:45.256Z,4.43
2018-11-10T14:42:13.483Z,6.17
2018-11-10T14:44:41.655Z,5.40
2018-11-10T14:47:09.901Z,6.03
2018-11-10T14:49:38.093Z,6.00
2018-11-10T14:52:06.292Z,3.70
2018-11-10T14:54:34.473Z,5.20
2018-11-10T14:57:02.719Z,3.67
2018-11-10T14:59:30.953Z,4.30
2018-11-10T15:01:59.189Z,5.60
2018-11-10T15:04:27.373Z,3.77
2018-11-10T15:06:55.574Z,4.80
2018-11-10T15:09:23.765Z,5.30
2018-11-10T15:11:52.144Z,4.37
2018-11-10T15:14:20.479Z,4.43
2018-11-10T15:16:48.758Z,7.33
2018-11-10T15:19:17.063Z,5.37
2018-11-10T15:21:45.381Z,5.33
2018-11-10T15:24:13.681Z,4.83
2018-11-10T15:26:41.889Z,5.67
2018-11-10T15:29:10.078Z,5.53
2018-11-10T15:31:38.270Z,7.57
2018-11-10T15:34:06.750Z,6.30
2018-11-10T15:36:34.929Z,6.47
2018-11-10T15:39:03.218Z,8.83
2018-11-10T15:41:31.406Z,5.63
2018-11-10T15:43:59.609Z,8.50
2018-11-10T15:46:27.798Z,11.43
2018-11-10T15:48:56.010Z,11.70
2018-11-10T15:51:24.297Z,12.83
2018-11-10T15:53:52.497Z,11.60
2018-11-10T15:56:20.696Z,8.50
2018-11-10T15:58:48.889Z,7.93
2018-11-10T16:01:17.086Z,11.53
2018-11-10T16:03:45.310Z,7.00
2018-11-10T16:06:13.492Z,8.83
2018-11-10T16:08:41.682Z,9.23
2018-11-10T16:11:09.881Z,8.87
2018-11-10T16:13:38.086Z,8.30
2018-11-10T16:16:06.749Z,7.30
2018-11-10T16:18:34.950Z,6.30
2018-11-10T16:21:03.286Z,6.60
2018-11-10T16:23:31.413Z,14.00
2018-11-10T16:25:59.625Z,8.20
2018-11-10T16:28:27.872Z,8.70
2018-11-10T16:30:56.785Z,10.50
2018-11-10T16:33:25.005Z,8.97
2018-11-10T16:35:53.217Z,29.10
2018-11-10T16:38:21.566Z,14.83
2018-11-10T16:40:49.832Z,8.93
2018-11-10T16:43:18.034Z,9.40
2018-11-10T16:45:46.226Z,5.30
2018-11-10T16:48:14.417Z,4.00
2018-11-10T16:50:42.630Z,6.60
2018-11-10T16:53:10.858Z,5.60
2018-11-10T16:55:38.992Z,5.90
2018-11-10T16:58:07.190Z,6.20
2018-11-10T17:00:35.385Z,7.27
2018-11-10T17:03:03.582Z,11.07
2018-11-10T17:05:31.801Z,6.87
2018-11-10T17:07:59.995Z,6.10
2018-11-10T17:10:28.173Z,6.50
2018-11-10T17:12:56.416Z,7.10
2018-11-10T17:15:24.632Z,6.37
2018-11-10T17:17:52.785Z,6.30
2018-11-10T17:20:20.986Z,5.43
2018-11-10T17:22:49.169Z,4.90
2018-11-10T17:27:25.685Z,6.50
2018-11-10T17:29:53.879Z,7.57
2018-11-10T17:32:22.318Z,9.43
2018-11-10T17:34:50.516Z,5.90
2018-11-10T17:37:18.727Z,5.70
2018-11-10T17:39:47.033Z,7.37
2018-11-10T17:42:15.144Z,3.80
2018-11-10T17:44:43.410Z,6.73
2018-11-10T17:47:11.581Z,6.40
2018-11-10T17:49:39.785Z,5.40
2018-11-10T17:52:08.002Z,6.37
2018-11-10T17:54:36.172Z,7.67
2018-11-10T17:57:04.366Z,8.57
2018-11-10T17:59:32.585Z,8.87
2018-11-10T18:02:01.056Z,8.83
2018-11-10T18:04:29.180Z,12.87
2018-11-10T18:06:57.357Z,11.87
2018-11-10T18:09:25.547Z,9.37
2018-11-10T18:11:53.723Z,9.70
2018-11-10T18:14:21.937Z,9.43
2018-11-10T18:16:50.117Z,9.10
2018-11-10T18:19:18.336Z,11.00
2018-11-10T18:21:46.519Z,8.47
2018-11-10T18:24:14.720Z,7.63
2018-11-10T18:26:42.904Z,10.50
2018-11-10T18:29:11.091Z,11.10
2018-11-10T18:31:39.257Z,8.80
2018-11-10T18:34:07.461Z,9.43
2018-11-10T18:36:35.891Z,9.10
2018-11-10T18:39:05.577Z,10.03
2018-11-10T18:41:33.753Z,9.50
2018-11-10T18:44:01.938Z,10.90
2018-11-10T18:46:30.179Z,10.10
2018-11-10T18:48:58.325Z,11.03
2018-11-10T18:51:26.523Z,9.97
2018-11-10T18:53:54.714Z,12.93
2018-11-10T18:56:22.906Z,14.33
2018-11-10T18:58:51.136Z,15.43
2018-11-10T19:01:19.327Z,16.10
2018-11-10T19:03:47.568Z,17.07
2018-11-10T19:06:15.869Z,16.37
2018-11-10T19:08:43.959Z,17.17
2018-11-10T19:11:12.138Z,13.27
2018-11-10T19:13:40.340Z,18.37
2018-11-10T19:16:08.520Z,15.10
2018-11-10T19:18:36.715Z,12.70
2018-11-10T19:21:05.423Z,16.20
2018-11-10T19:23:33.565Z,14.50
2018-11-10T19:26:01.764Z,13.50
2018-11-10T19:28:29.955Z,15.60
2018-11-10T19:30:58.139Z,14.63
2018-11-10T19:33:26.358Z,15.30
2018-11-10T19:35:54.570Z,13.23
2018-11-10T19:38:22.779Z,19.83
2018-11-10T19:40:50.976Z,15.70
2018-11-10T19:43:19.200Z,13.83
2018-11-10T19:45:47.377Z,12.43
2018-11-10T19:48:15.581Z,13.00
2018-11-10T19:50:43.955Z,15.73
2018-11-10T19:53:12.021Z,28.33
2018-11-10T19:55:40.261Z,13.40
2018-11-10T19:58:08.449Z,15.23
2018-11-10T20:00:36.678Z,12.73
2018-11-10T20:03:05.138Z,12.83
2018-11-10T20:05:33.341Z,16.53
2018-11-10T20:08:01.614Z,15.07
2018-11-10T20:10:29.821Z,16.20
2018-11-10T20:12:58.072Z,17.33
2018-11-10T20:15:26.245Z,18.90
2018-11-10T20:17:54.446Z,12.87
2018-11-10T20:20:22.657Z,13.73
2018-11-10T20:22:50.863Z,13.80
2018-11-10T20:25:19.572Z,11.40
2018-11-10T20:27:47.770Z,13.53
2018-11-10T20:30:17.262Z,12.60
2018-11-10T20:32:45.776Z,9.97
2018-11-10T20:35:14.314Z,12.90
2018-11-10T20:37:43.189Z,9.90
2018-11-10T20:40:12.731Z,9.80
2018-11-10T20:42:41.185Z,11.07
2018-11-10T20:45:11.805Z,8.90
2018-11-10T20:47:40.503Z,7.73
2018-11-10T20:50:08.725Z,13.00
2018-11-10T20:52:37.658Z,12.67
2018-11-10T20:55:07.778Z,8.63
2018-11-10T20:57:36.667Z,9.63
2018-11-10T21:00:07.957Z,9.23
2018-11-10T21:02:36.117Z,8.37
2018-11-10T21:05:04.913Z,8.10
2018-11-10T21:07:33.089Z,6.83
2018-11-10T21:10:01.292Z,7.90
2018-11-10T21:12:29.465Z,7.10
2018-11-10T21:14:57.661Z,7.10
2018-11-10T21:17:25.841Z,6.13
2018-11-10T21:19:54.051Z,7.33
2018-11-10T21:22:22.230Z,8.70
2018-11-10T21:24:50.416Z,4.97
2018-11-10T21:27:18.602Z,6.13
2018-11-10T21:29:46.905Z,7.10
2018-11-10T21:32:14.968Z,6.77
2018-11-10T21:34:43.243Z,6.23
2018-11-10T21:37:11.421Z,6.90
2018-11-10T21:39:39.622Z,5.23
2018-11-10T21:42:07.801Z,8.07
2018-11-10T21:44:35.993Z,7.33
2018-11-10T21:47:04.218Z,5.80
2018-11-10T21:49:32.462Z,7.57
2018-11-10T21:52:00.592Z,6.43
2018-11-10T21:54:28.782Z,7.20
2018-11-10T21:56:56.966Z,5.60
2018-11-10T21:59:25.145Z,6.80
2018-11-10T22:01:53.332Z,9.83
2018-11-10T22:04:21.537Z,6.47
2018-11-10T22:06:49.711Z,8.50
2018-11-10T22:09:18.064Z,8.70
2018-11-10T22:11:46.089Z,5.27
2018-11-10T22:14:14.297Z,7.10
2018-11-10T22:16:42.462Z,7.00
2018-11-10T22:19:10.652Z,8.77
2018-11-10T22:21:38.841Z,5.93
2018-11-10T22:24:07.226Z,5.60
2018-11-10T22:26:35.413Z,6.60
2018-11-10T22:29:03.610Z,5.20
2018-11-10T22:31:31.802Z,6.43
2018-11-10T22:34:00.009Z,6.40
2018-11-10T22:36:28.190Z,5.83
2018-11-10T22:38:56.365Z,4.70
2018-11-10T22:41:24.563Z,6.00
2018-11-10T22:43:52.750Z,8.40
2018-11-10T22:46:20.942Z,5.33
2018-11-10T22:48:49.188Z,7.43
2018-11-10T22:51:17.709Z,5.30
2018-11-10T22:53:45.921Z,5.47
2018-11-10T22:56:14.287Z,4.33
2018-11-10T22:58:42.493Z,3.93
2018-11-10T23:01:12.345Z,8.10
2018-11-10T23:03:40.948Z,6.37
2018-11-10T23:06:10.497Z,6.40
2018-11-10T23:08:38.857Z,5.57
2018-11-10T23:11:07.058Z,7.00
2018-11-10T23:13:35.458Z,6.37
2018-11-10T23:16:03.687Z,7.67
2018-11-10T23:18:31.912Z,6.17
2018-11-10T23:21:00.122Z,7.40
2018-11-10T23:23:28.426Z,6.00
2018-11-10T23:25:56.585Z,5.67
2018-11-10T23:28:24.802Z,5.77
2018-11-10T23:30:53.032Z,5.30
2018-11-10T23:33:21.238Z,5.73
2018-11-10T23:35:49.481Z,5.97
2018-11-10T23:38:17.829Z,7.97
2018-11-10T23:40:46.083Z,5.80
2018-11-10T23:43:14.327Z,7.80
2018-11-10T23:45:42.632Z,7.03
2018-11-10T23:48:10.861Z,3.90
2018-11-10T23:50:39.097Z,4.80
2018-11-10T23:53:07.318Z,3.67
2018-11-10T23:55:35.535Z,9.37
2018-11-10T23:58:03.796Z,3.40
